Time;durP1;ratioP1;P1;durP2;ratioP2;P2;SDS_P1;SDS_P2;PMS_P1;PMS_P2;Temp;Humidity;BMP_temperature;BMP_pressure;BME280_temperature;BME280_humidity;BME280_pressure;Samples;Min_cycle;Max_cycle;Signal;HPM_P1;HPM_P2
2023/07/03 00:02:02;;;;;;;13.60;4.38;;;15.60;68.00;;;;;;5034405;28;20124;-62
2023/07/03 00:04:27;;;;;;;16.95;4.80;;;15.60;68.10;;;;;;5042917;28;20099;-62
2023/07/03 00:06:53;;;;;;;15.48;5.40;;;15.60;68.50;;;;;;5037851;28;20068;-62
2023/07/03 00:09:19;;;;;;;11.52;4.30;;;15.60;68.80;;;;;;5040754;28;20397;-62
2023/07/03 00:11:44;;;;;;;18.63;4.70;;;15.60;68.90;;;;;;5035480;28;20045;-62
2023/07/03 00:14:10;;;;;;;13.98;4.63;;;15.60;69.30;;;;;;5031172;28;20068;-62
2023/07/03 00:16:35;;;;;;;17.35;5.38;;;15.60;69.50;;;;;;5037098;28;20039;-67
2023/07/03 00:19:01;;;;;;;11.93;4.95;;;15.60;69.80;;;;;;5040138;28;20037;-62
2023/07/03 00:21:26;;;;;;;15.73;4.88;;;15.50;70.10;;;;;;5037438;28;20029;-62
2023/07/03 00:23:52;;;;;;;18.30;4.68;;;15.50;70.20;;;;;;5040219;28;20111;-62
2023/07/03 00:26:17;;;;;;;13.98;4.32;;;15.50;71.10;;;;;;5035901;28;20156;-62
2023/07/03 00:28:43;;;;;;;15.38;4.72;;;15.50;70.70;;;;;;5053792;28;20083;-62
2023/07/03 00:31:08;;;;;;;16.65;4.85;;;15.50;70.80;;;;;;5033759;28;20042;-62
2023/07/03 00:33:34;;;;;;;14.10;5.00;;;15.50;71.10;;;;;;5035651;28;20142;-62
2023/07/03 00:35:59;;;;;;;13.52;4.70;;;15.50;71.10;;;;;;5027410;28;20068;-62
2023/07/03 00:38:25;;;;;;;15.15;5.15;;;15.50;71.10;;;;;;5044834;28;20056;-62
2023/07/03 00:40:51;;;;;;;18.20;5.03;;;15.50;71.30;;;;;;5043717;28;20404;-65
2023/07/03 00:43:17;;;;;;;11.75;4.65;;;15.50;71.20;;;;;;5039864;28;20422;-62
2023/07/03 00:45:43;;;;;;;14.00;4.78;;;15.50;71.30;;;;;;5045149;28;20098;-62
2023/07/03 00:48:09;;;;;;;10.60;5.00;;;15.50;71.30;;;;;;5036458;28;20508;-62
2023/07/03 00:50:35;;;;;;;15.05;4.68;;;15.50;71.50;;;;;;5046667;28;20560;-62
2023/07/03 00:53:04;;;;;;;16.70;5.03;;;15.40;71.60;;;;;;5019347;28;20312;-63
2023/07/03 00:55:31;;;;;;;13.02;5.05;;;15.40;71.90;;;;;;5040093;28;20365;-62
2023/07/03 00:57:57;;;;;;;14.35;4.78;;;15.40;72.10;;;;;;5038548;28;20482;-62
2023/07/03 01:00:28;;;;;;;19.83;5.32;;;15.40;72.00;;;;;;5031745;28;20044;-62
2023/07/03 01:03:00;;;;;;;15.57;4.57;;;15.40;72.60;;;;;;5035923;28;20102;-62
2023/07/03 01:05:31;;;;;;;15.50;5.03;;;15.40;73.10;;;;;;5035724;28;20033;-62
2023/07/03 01:07:58;;;;;;;20.50;5.10;;;15.40;73.40;;;;;;5030694;28;20053;-62
2023/07/03 01:10:26;;;;;;;15.23;4.68;;;15.40;72.60;;;;;;5038246;28;20048;-62
2023/07/03 01:12:59;;;;;;;11.73;4.47;;;15.40;72.80;;;;;;5035961;28;20533;-62
2023/07/03 01:15:33;;;;;;;19.50;5.38;;;15.40;73.00;;;;;;5033697;28;20041;-62
2023/07/03 01:18:01;;;;;;;21.20;5.20;;;15.40;73.90;;;;;;5037882;28;20132;-62
2023/07/03 01:20:32;;;;;;;17.67;4.70;;;15.40;73.30;;;;;;5033710;28;20079;-62
2023/07/03 01:23:11;;;;;;;15.40;4.53;;;15.40;73.50;;;;;;5039654;28;20129;-62
2023/07/03 01:25:38;;;;;;;13.52;4.45;;;15.40;73.80;;;;;;5034952;28;20052;-62
2023/07/03 01:28:07;;;;;;;21.73;5.18;;;15.50;73.40;;;;;;5040087;28;23161;-62
2023/07/03 01:30:33;;;;;;;23.13;5.22;;;15.50;73.30;;;;;;5032774;28;20042;-62
2023/07/03 01:33:01;;;;;;;19.88;4.80;;;15.50;73.40;;;;;;5035242;28;20044;-62
2023/07/03 01:35:27;;;;;;;16.67;5.13;;;15.50;73.70;;;;;;5048786;28;20048;-62
2023/07/03 01:37:54;;;;;;;18.30;4.18;;;15.50;73.80;;;;;;5035451;28;20033;-63
2023/07/03 01:40:23;;;;;;;18.75;4.60;;;15.50;73.70;;;;;;5044023;28;20120;-62
2023/07/03 01:42:49;;;;;;;17.08;5.10;;;15.50;74.20;;;;;;5029869;28;20079;-62
2023/07/03 01:45:15;;;;;;;16.33;4.30;;;15.50;74.00;;;;;;5032530;28;20037;-62
2023/07/03 01:47:41;;;;;;;16.10;5.05;;;15.50;73.80;;;;;;5040534;28;20526;-62
2023/07/03 01:50:12;;;;;;;10.30;3.90;;;15.50;74.10;;;;;;5045734;28;20112;-62
2023/07/03 01:52:41;;;;;;;18.13;4.55;;;15.60;74.30;;;;;;5037064;28;20068;-62
2023/07/03 01:55:23;;;;;;;12.75;4.40;;;15.50;74.10;;;;;;5038777;28;20082;-62
2023/07/03 01:57:59;;;;;;;15.57;4.68;;;15.60;75.20;;;;;;5034893;28;20376;-62
2023/07/03 02:00:45;;;;;;;16.90;4.93;;;15.60;75.10;;;;;;5026918;28;20192;-62
2023/07/03 02:03:35;;;;;;;17.02;4.60;;;15.60;75.90;;;;;;5037502;28;20044;-63
2023/07/03 02:06:05;;;;;;;16.92;4.55;;;15.60;75.90;;;;;;5024073;28;20081;-62
2023/07/03 02:08:31;;;;;;;20.02;5.07;;;15.60;74.50;;;;;;5028447;28;20430;-62
2023/07/03 02:10:57;;;;;;;18.95;4.80;;;15.60;74.90;;;;;;5034789;28;20045;-62
2023/07/03 02:13:22;;;;;;;15.95;4.80;;;15.60;74.60;;;;;;5034654;28;20052;-62
2023/07/03 02:15:48;;;;;;;17.55;5.00;;;15.60;74.80;;;;;;5031231;28;20041;-63
2023/07/03 02:18:17;;;;;;;18.92;4.55;;;15.60;75.00;;;;;;5029846;28;20037;-62
2023/07/03 02:20:44;;;;;;;20.52;4.72;;;15.60;75.10;;;;;;5032614;28;20043;-62
2023/07/03 02:23:10;;;;;;;18.65;5.32;;;15.70;75.20;;;;;;5030640;28;20072;-63
2023/07/03 02:25:36;;;;;;;16.90;4.72;;;15.70;75.10;;;;;;5034591;28;20416;-62
2023/07/03 02:28:01;;;;;;;24.58;4.80;;;15.30;77.00;;;;;;5035254;28;20037;-63
2023/07/03 02:30:27;;;;;;;15.05;5.03;;;15.00;79.20;;;;;;5041557;28;20102;-63
2023/07/03 02:32:53;;;;;;;16.77;4.45;;;14.90;81.90;;;;;;5033679;28;20041;-62
2023/07/03 02:35:18;;;;;;;15.63;4.97;;;14.80;83.10;;;;;;5037571;28;20025;-62
2023/07/03 02:37:44;;;;;;;17.15;4.80;;;14.70;84.50;;;;;;5034239;28;20037;-63
2023/07/03 02:40:13;;;;;;;20.38;4.38;;;14.60;86.00;;;;;;5027444;28;20477;-63
2023/07/03 02:42:39;;;;;;;13.82;4.72;;;14.60;86.60;;;;;;5035171;28;20054;-62
2023/07/03 02:45:06;;;;;;;19.98;4.70;;;14.50;88.50;;;;;;5023951;28;20093;-63
2023/07/03 02:47:36;;;;;;;13.75;4.88;;;14.50;88.70;;;;;;5036966;28;20040;-63
2023/07/03 02:50:07;;;;;;;13.35;4.35;;;14.50;90.50;;;;;;5044465;28;20045;-63
2023/07/03 02:52:33;;;;;;;18.73;4.38;;;14.60;90.20;;;;;;5029990;28;20045;-63
2023/07/03 02:54:58;;;;;;;16.77;4.13;;;14.60;89.50;;;;;;5029594;28;20183;-62
2023/07/03 02:57:24;;;;;;;16.10;4.50;;;14.60;90.00;;;;;;5038459;28;20063;-63
2023/07/03 02:59:50;;;;;;;18.88;4.78;;;14.60;89.60;;;;;;5041277;28;20641;-62
2023/07/03 03:02:16;;;;;;;16.33;4.32;;;14.60;89.40;;;;;;5034462;28;20025;-63
2023/07/03 03:04:41;;;;;;;14.70;4.30;;;14.70;89.30;;;;;;5040180;28;20045;-63
2023/07/03 03:07:07;;;;;;;13.80;4.35;;;14.70;88.80;;;;;;5032307;28;20084;-62
2023/07/03 03:09:32;;;;;;;17.88;4.40;;;14.70;88.90;;;;;;5036450;28;20131;-62
2023/07/03 03:11:58;;;;;;;17.77;4.43;;;14.70;88.20;;;;;;5030467;28;20044;-63
2023/07/03 03:14:24;;;;;;;17.10;4.25;;;14.80;87.70;;;;;;5031276;28;20126;-63
2023/07/03 03:16:50;;;;;;;15.80;4.63;;;14.80;87.50;;;;;;5030825;28;20136;-63
2023/07/03 03:19:15;;;;;;;18.08;4.40;;;14.80;87.70;;;;;;5043589;28;20041;-62
2023/07/03 03:21:41;;;;;;;12.73;3.67;;;14.90;86.70;;;;;;5045273;28;20060;-62
2023/07/03 03:24:06;;;;;;;19.13;4.03;;;15.00;86.00;;;;;;5037565;28;20045;-62
2023/07/03 03:26:32;;;;;;;18.15;5.60;;;15.00;85.40;;;;;;5041723;28;20151;-63
2023/07/03 03:28:58;;;;;;;15.02;3.85;;;15.00;85.10;;;;;;5047318;28;20719;-63
2023/07/03 03:31:23;;;;;;;12.63;3.65;;;15.00;84.30;;;;;;5032367;28;20493;-62
2023/07/03 03:33:49;;;;;;;14.68;3.75;;;14.90;83.30;;;;;;5040508;28;20030;-62
2023/07/03 03:36:15;;;;;;;11.15;3.35;;;14.90;83.20;;;;;;5039704;28;20219;-63
2023/07/03 03:38:41;;;;;;;12.20;3.78;;;14.90;82.60;;;;;;5049431;28;20047;-62
2023/07/03 03:41:07;;;;;;;9.45;2.78;;;14.80;81.90;;;;;;5041537;28;20041;-62
2023/07/03 03:43:32;;;;;;;12.68;3.17;;;14.80;81.60;;;;;;5030672;28;20118;-62
2023/07/03 03:46:02;;;;;;;11.27;3.28;;;14.70;81.00;;;;;;5027843;28;20037;-62
2023/07/03 03:48:29;;;;;;;12.27;3.00;;;14.70;80.50;;;;;;5035333;28;20083;-62
2023/07/03 03:50:55;;;;;;;6.00;2.47;;;14.70;80.30;;;;;;5045150;28;20132;-62
2023/07/03 03:53:22;;;;;;;7.32;2.72;;;14.70;79.70;;;;;;5028907;28;20131;-62
2023/07/03 03:55:52;;;;;;;10.75;2.55;;;14.60;79.20;;;;;;5035810;28;20048;-63
2023/07/03 03:58:19;;;;;;;10.75;2.80;;;14.60;78.60;;;;;;5047976;28;20532;-63
2023/07/03 04:00:45;;;;;;;9.75;2.40;;;14.60;78.40;;;;;;5033671;28;20045;-62
2023/07/03 04:03:11;;;;;;;11.57;2.45;;;14.50;78.00;;;;;;5035094;28;20471;-63
2023/07/03 04:05:38;;;;;;;7.68;2.85;;;14.50;77.80;;;;;;5036943;28;20122;-62
2023/07/03 04:08:03;;;;;;;8.38;2.45;;;14.50;77.40;;;;;;5031033;28;20041;-62
2023/07/03 04:10:29;;;;;;;10.95;2.70;;;14.50;77.20;;;;;;5030214;28;20045;-63
2023/07/03 04:12:54;;;;;;;8.63;2.33;;;14.50;76.80;;;;;;5045662;28;20116;-63
2023/07/03 04:15:22;;;;;;;12.10;2.60;;;14.50;76.40;;;;;;5039206;28;20120;-62
2023/07/03 04:17:48;;;;;;;12.05;2.40;;;14.50;75.70;;;;;;5039878;28;20102;-65
2023/07/03 04:20:13;;;;;;;7.05;2.00;;;14.50;75.40;;;;;;5038516;28;20041;-63
2023/07/03 04:22:42;;;;;;;12.30;2.45;;;14.60;75.00;;;;;;5033613;28;20141;-63
2023/07/03 04:25:09;;;;;;;8.82;2.28;;;14.60;74.40;;;;;;5032165;28;20055;-62
2023/07/03 04:27:35;;;;;;;13.82;2.67;;;14.50;74.10;;;;;;5038720;28;20045;-62
2023/07/03 04:30:04;;;;;;;9.82;2.15;;;14.60;74.00;;;;;;5043115;28;20106;-63
2023/07/03 04:32:29;;;;;;;8.88;1.95;;;14.60;73.60;;;;;;5040543;28;20051;-63
2023/07/03 04:34:57;;;;;;;8.57;1.60;;;14.60;73.50;;;;;;5037921;28;20113;-63
2023/07/03 04:37:26;;;;;;;9.48;1.98;;;14.60;73.60;;;;;;5017598;28;20033;-63
2023/07/03 04:39:53;;;;;;;9.18;1.92;;;14.60;73.20;;;;;;5013936;28;20112;-63
2023/07/03 04:42:20;;;;;;;9.50;2.15;;;14.60;72.60;;;;;;5035763;28;20045;-63
2023/07/03 04:44:48;;;;;;;5.72;1.70;;;14.70;72.30;;;;;;5032563;28;20068;-62
2023/07/03 04:47:16;;;;;;;10.80;1.83;;;14.70;71.60;;;;;;5036296;28;20662;-63
2023/07/03 04:49:43;;;;;;;7.43;1.70;;;14.90;70.90;;;;;;5048003;28;20500;-63
2023/07/03 04:52:09;;;;;;;7.63;2.08;;;14.90;70.70;;;;;;5031723;28;20601;-63
2023/07/03 04:54:35;;;;;;;8.23;1.95;;;15.00;70.70;;;;;;5043638;28;20120;-62
2023/07/03 04:57:00;;;;;;;6.47;1.60;;;15.10;70.50;;;;;;5039019;28;20036;-63
2023/07/03 04:59:26;;;;;;;5.70;1.17;;;15.10;70.10;;;;;;5040595;28;20033;-62
2023/07/03 05:01:52;;;;;;;6.63;1.70;;;15.20;69.90;;;;;;5039246;28;20432;-63
2023/07/03 05:04:17;;;;;;;11.07;2.33;;;15.30;69.60;;;;;;5035210;28;20257;-62
2023/07/03 05:06:43;;;;;;;5.40;1.50;;;15.40;69.40;;;;;;5042544;28;20139;-63
2023/07/03 05:09:08;;;;;;;5.10;1.60;;;15.40;69.10;;;;;;5041962;28;20134;-62
2023/07/03 05:11:34;;;;;;;5.30;1.85;;;15.50;68.90;;;;;;5035155;28;20408;-63
2023/07/03 05:14:00;;;;;;;9.23;2.15;;;15.50;68.50;;;;;;5045006;28;20114;-64
2023/07/03 05:16:26;;;;;;;8.20;1.77;;;15.50;67.90;;;;;;5037743;28;20040;-62
2023/07/03 05:18:51;;;;;;;5.95;1.50;;;15.70;68.10;;;;;;5045869;28;20512;-63
2023/07/03 05:21:17;;;;;;;6.85;1.50;;;15.70;67.90;;;;;;5038631;28;20043;-63
2023/07/03 05:23:43;;;;;;;6.28;1.65;;;15.80;67.80;;;;;;5039982;28;20052;-63
2023/07/03 05:26:09;;;;;;;6.47;1.55;;;15.90;67.50;;;;;;5036958;28;20037;-63
2023/07/03 05:28:36;;;;;;;6.13;1.63;;;16.10;67.30;;;;;;5035129;28;20052;-63
2023/07/03 05:31:02;;;;;;;8.98;1.90;;;16.10;66.10;;;;;;5035086;28;20041;-63
2023/07/03 05:33:28;;;;;;;10.10;1.88;;;16.20;66.60;;;;;;5039177;28;20383;-63
2023/07/03 05:35:55;;;;;;;4.32;1.52;;;16.30;66.80;;;;;;5035857;28;20045;-62
2023/07/03 05:38:20;;;;;;;5.68;1.55;;;16.40;66.40;;;;;;5018458;28;20053;-64
2023/07/03 05:40:49;;;;;;;4.82;1.48;;;16.50;65.60;;;;;;5040090;28;20087;-63
2023/07/03 05:43:15;;;;;;;5.47;1.75;;;16.60;65.80;;;;;;5024916;28;20636;-63
2023/07/03 05:45:41;;;;;;;6.57;1.88;;;16.80;65.20;;;;;;5033717;28;20055;-63
2023/07/03 05:48:07;;;;;;;7.97;1.55;;;16.90;65.10;;;;;;5040903;28;20196;-63
2023/07/03 05:50:32;;;;;;;5.25;1.60;;;16.70;64.40;;;;;;5038021;28;20124;-63
2023/07/03 05:52:59;;;;;;;9.48;1.70;;;16.70;64.80;;;;;;5036925;28;20052;-63
2023/07/03 05:55:25;;;;;;;7.45;1.85;;;16.70;65.10;;;;;;5031929;28;20425;-63
2023/07/03 05:57:50;;;;;;;6.53;1.48;;;16.60;64.90;;;;;;5033182;28;20111;-63
2023/07/03 06:00:17;;;;;;;9.98;1.83;;;16.60;65.00;;;;;;5030547;28;20037;-63
2023/07/03 06:02:44;;;;;;;9.00;1.98;;;16.60;64.90;;;;;;5029991;28;20077;-63
2023/07/03 06:05:11;;;;;;;3.75;1.42;;;16.70;64.60;;;;;;5030402;28;20053;-63
2023/07/03 06:07:37;;;;;;;9.00;1.90;;;16.80;64.70;;;;;;5029797;28;20126;-63
2023/07/03 06:10:03;;;;;;;8.77;1.52;;;16.80;64.20;;;;;;5026498;28;20544;-63
2023/07/03 06:12:29;;;;;;;9.05;1.50;;;16.90;64.00;;;;;;5031109;28;20037;-63
2023/07/03 06:15:00;;;;;;;6.53;1.60;;;16.90;64.10;;;;;;5036923;28;20037;-63
2023/07/03 06:17:28;;;;;;;11.85;2.05;;;16.70;63.60;;;;;;5043121;28;20036;-63
2023/07/03 06:19:53;;;;;;;11.52;2.95;;;16.70;63.90;;;;;;5046322;28;20156;-63
2023/07/03 06:22:20;;;;;;;7.30;1.65;;;17.10;64.10;;;;;;5030473;28;20160;-63
2023/07/03 06:24:46;;;;;;;6.95;1.50;;;17.60;63.30;;;;;;5039807;28;20107;-62
2023/07/03 06:27:12;;;;;;;9.63;1.77;;;17.90;63.10;;;;;;5030879;28;20045;-64
2023/07/03 06:29:39;;;;;;;8.07;2.28;;;17.70;63.00;;;;;;5035304;28;20055;-63
2023/07/03 06:32:05;;;;;;;6.80;1.80;;;17.40;63.00;;;;;;5036275;28;20227;-63
2023/07/03 06:34:31;;;;;;;8.70;3.63;;;17.30;64.40;;;;;;5037705;28;20430;-63
2023/07/03 06:36:56;;;;;;;9.13;2.10;;;17.20;64.60;;;;;;5030190;28;20076;-64
2023/07/03 06:39:22;;;;;;;7.97;1.50;;;17.20;64.50;;;;;;5034019;28;20124;-62
2023/07/03 06:41:50;;;;;;;8.07;1.60;;;17.20;64.30;;;;;;5031412;28;20067;-63
2023/07/03 06:44:17;;;;;;;9.45;1.85;;;17.20;64.10;;;;;;5044165;28;20048;-63
2023/07/03 06:46:43;;;;;;;8.23;2.05;;;17.40;63.70;;;;;;5037476;28;20037;-63
2023/07/03 06:49:09;;;;;;;8.57;1.50;;;17.90;63.00;;;;;;5044744;28;20110;-63
2023/07/03 06:51:36;;;;;;;7.35;1.83;;;18.30;62.20;;;;;;5030688;28;20068;-63
2023/07/03 06:54:02;;;;;;;6.75;1.50;;;18.40;61.10;;;;;;5038864;28;20433;-63
2023/07/03 06:56:28;;;;;;;7.10;1.80;;;18.30;60.40;;;;;;5032610;28;20112;-63
2023/07/03 06:58:54;;;;;;;4.95;1.52;;;18.30;60.10;;;;;;5035497;28;20493;-63
2023/07/03 07:01:23;;;;;;;9.73;1.88;;;17.70;61.70;;;;;;5036275;28;20135;-63
2023/07/03 07:03:49;;;;;;;8.55;1.95;;;16.70;67.20;;;;;;5044504;28;20048;-63
2023/07/03 07:06:27;;;;;;;7.30;1.67;;;15.90;69.80;;;;;;5033127;28;20040;-64
2023/07/03 07:08:53;;;;;;;7.90;1.80;;;15.30;73.90;;;;;;5038682;28;20495;-63
2023/07/03 07:11:20;;;;;;;6.85;1.73;;;15.00;74.90;;;;;;5027314;28;20048;-63
2023/07/03 07:13:48;;;;;;;13.25;1.95;;;14.90;77.90;;;;;;5035987;28;20046;-63
2023/07/03 07:16:17;;;;;;;7.30;2.00;;;14.80;81.50;;;;;;5013777;28;20033;-63
2023/07/03 07:18:45;;;;;;;5.95;1.63;;;14.80;82.80;;;;;;5038216;28;20094;-63
2023/07/03 07:21:11;;;;;;;7.05;1.80;;;14.90;82.50;;;;;;5040075;28;20048;-62
2023/07/03 07:23:37;;;;;;;8.13;2.67;;;14.90;81.10;;;;;;5031495;28;20458;-62
2023/07/03 07:26:02;;;;;;;6.95;1.95;;;14.90;81.30;;;;;;5033958;28;20552;-63
2023/07/03 07:28:31;;;;;;;9.93;1.98;;;14.90;81.30;;;;;;5038623;28;20040;-62
2023/07/03 07:30:57;;;;;;;5.53;1.30;;;15.00;80.90;;;;;;5014536;28;20038;-63
2023/07/03 07:33:23;;;;;;;8.13;1.73;;;15.10;81.20;;;;;;5039673;28;20504;-63
2023/07/03 07:35:50;;;;;;;6.78;1.70;;;15.50;82.30;;;;;;5039583;28;20116;-63
2023/07/03 07:38:16;;;;;;;10.57;2.03;;;15.80;82.20;;;;;;5046290;28;20116;-63
2023/07/03 07:40:43;;;;;;;8.55;1.80;;;16.10;80.60;;;;;;5042262;28;20116;-63
2023/07/03 07:43:08;;;;;;;9.32;1.90;;;16.20;79.70;;;;;;5043316;28;20124;-63
2023/07/03 07:45:34;;;;;;;7.38;1.40;;;16.70;78.00;;;;;;5041181;28;20045;-63
2023/07/03 07:48:00;;;;;;;7.22;1.50;;;17.50;76.10;;;;;;5034903;28;20067;-63
2023/07/03 07:50:27;;;;;;;3.72;1.15;;;17.90;75.00;;;;;;5035411;28;20033;-63
2023/07/03 07:52:53;;;;;;;5.45;1.42;;;18.20;72.80;;;;;;5037480;28;20535;-63
2023/07/03 07:55:19;;;;;;;9.75;1.58;;;18.20;71.40;;;;;;5039681;28;20068;-63
2023/07/03 07:57:45;;;;;;;4.00;1.40;;;18.20;69.20;;;;;;5042700;28;20036;-63
2023/07/03 08:00:11;;;;;;;7.13;1.27;;;18.40;65.50;;;;;;5036114;28;20029;-63
2023/07/03 08:02:36;;;;;;;6.13;1.17;;;18.40;63.60;;;;;;5029383;28;20102;-63
2023/07/03 08:05:02;;;;;;;5.93;1.50;;;18.50;59.80;;;;;;5033816;28;20380;-63
2023/07/03 08:07:28;;;;;;;6.75;1.42;;;18.20;61.50;;;;;;5028057;28;20055;-63
2023/07/03 08:09:54;;;;;;;4.32;1.10;;;17.70;61.70;;;;;;5041562;28;20053;-63
2023/07/03 08:12:19;;;;;;;11.48;1.80;;;17.10;64.60;;;;;;5042078;28;20407;-63
2023/07/03 08:14:45;;;;;;;2.92;1.40;;;16.10;68.50;;;;;;5033031;28;20043;-63
2023/07/03 08:17:10;;;;;;;7.20;1.67;;;15.50;75.30;;;;;;5043042;28;20129;-64
2023/07/03 08:19:36;;;;;;;5.35;1.30;;;15.10;79.30;;;;;;5037884;28;20072;-62
2023/07/03 08:22:02;;;;;;;8.68;1.77;;;14.70;83.80;;;;;;5035904;28;20042;-63
2023/07/03 08:24:27;;;;;;;4.07;1.00;;;14.30;88.60;;;;;;5030795;28;20041;-63
2023/07/03 08:26:54;;;;;;;3.45;0.93;;;14.10;90.30;;;;;;5041135;28;20060;-63
2023/07/03 08:29:20;;;;;;;3.90;1.70;;;14.00;91.20;;;;;;5037069;28;20119;-63
2023/07/03 08:31:45;;;;;;;6.03;1.25;;;13.80;92.30;;;;;;5041274;28;20431;-64
2023/07/03 08:34:11;;;;;;;3.47;1.23;;;13.60;93.10;;;;;;5046308;28;20036;-63
2023/07/03 08:36:37;;;;;;;4.65;1.30;;;13.60;94.00;;;;;;5044889;28;20400;-63
2023/07/03 08:39:04;;;;;;;8.48;1.50;;;13.70;94.70;;;;;;5043952;28;20460;-63
2023/07/03 08:41:34;;;;;;;4.78;1.52;;;14.00;97.50;;;;;;5038412;28;20034;-63
2023/07/03 08:44:01;;;;;;;6.85;1.58;;;14.30;98.30;;;;;;5040141;28;20061;-63
2023/07/03 08:46:31;;;;;;;4.82;1.42;;;14.50;96.90;;;;;;5038290;28;20033;-63
2023/07/03 08:49:04;;;;;;;3.88;1.40;;;14.60;97.20;;;;;;5036756;28;20094;-63
2023/07/03 08:51:32;;;;;;;6.03;1.58;;;14.60;97.30;;;;;;5034809;28;20312;-63
2023/07/03 08:54:05;;;;;;;5.70;1.75;;;14.60;97.80;;;;;;5029304;28;20037;-63
2023/07/03 08:56:33;;;;;;;4.93;1.20;;;14.50;98.30;;;;;;5032911;28;20735;-64
2023/07/03 08:59:02;;;;;;;3.17;1.00;;;14.40;96.70;;;;;;5040632;28;20124;-63
2023/07/03 09:01:50;;;;;;;5.60;1.38;;;14.20;96.10;;;;;;5034377;28;20051;-63
2023/07/03 09:04:39;;;;;;;3.70;1.05;;;14.00;98.70;;;;;;5032787;28;20137;-63
2023/07/03 09:07:30;;;;;;;3.23;1.47;;;13.80;98.60;;;;;;5037417;28;20060;-63
2023/07/03 09:10:13;;;;;;;4.85;1.42;;;13.90;99.90;;;;;;5034075;28;20304;-65
2023/07/03 09:12:49;;;;;;;7.13;1.70;;;13.90;99.90;;;;;;5037273;28;20056;-64
2023/07/03 09:15:23;;;;;;;4.60;1.58;;;14.00;99.90;;;;;;5035361;28;20068;-63
2023/07/03 09:17:51;;;;;;;4.25;1.30;;;14.10;99.70;;;;;;5037751;28;20039;-63
2023/07/03 09:20:18;;;;;;;7.95;1.77;;;14.10;98.30;;;;;;5030440;28;20037;-63
2023/07/03 09:23:02;;;;;;;4.57;1.55;;;14.20;98.30;;;;;;5043533;28;20041;-63
2023/07/03 09:26:00;;;;;;;5.38;1.45;;;14.20;99.30;;;;;;5045413;28;20605;-63
2023/07/03 09:28:26;;;;;;;7.15;1.80;;;14.20;98.70;;;;;;5028978;28;20045;-63
2023/07/03 09:30:55;;;;;;;3.90;2.00;;;14.30;98.10;;;;;;5032310;28;20354;-63
2023/07/03 09:33:20;;;;;;;6.72;2.20;;;14.60;97.30;;;;;;5030480;28;20034;-63
2023/07/03 09:35:47;;;;;;;6.65;2.25;;;15.10;98.30;;;;;;5044731;28;20104;-63
2023/07/03 09:38:23;;;;;;;6.30;2.50;;;16.50;96.50;;;;;;5034443;28;20045;-63
2023/07/03 09:40:54;;;;;;;3.55;2.08;;;16.90;92.40;;;;;;5032741;28;20204;-63
2023/07/03 09:43:21;;;;;;;;;;;17.00;90.90;;;;;;5010647;28;20135;-63
2023/07/03 09:45:48;;;;;;;9.20;3.20;;;17.90;91.80;;;;;;5027741;28;19928;-63
2023/07/03 09:48:21;;;;;;;6.70;2.22;;;18.90;89.40;;;;;;5034191;28;20049;-63
2023/07/03 09:50:47;;;;;;;10.02;5.20;;;19.90;82.30;;;;;;5039482;28;20044;-63
2023/07/03 09:53:22;;;;;;;7.63;2.53;;;20.10;79.10;;;;;;5042268;28;20038;-63
2023/07/03 09:55:53;;;;;;;5.55;2.70;;;20.20;74.70;;;;;;5028598;28;20764;-64
2023/07/03 09:58:18;;;;;;;9.25;2.60;;;19.70;77.90;;;;;;5039364;28;20040;-63
2023/07/03 10:00:50;;;;;;;5.05;2.33;;;18.90;77.10;;;;;;5029273;28;20049;-63
2023/07/03 10:03:28;;;;;;;5.15;1.55;;;18.50;78.20;;;;;;5031197;28;20045;-63
2023/07/03 10:05:55;;;;;;;6.20;1.83;;;18.90;79.40;;;;;;5029472;28;20401;-65
2023/07/03 10:08:24;;;;;;;5.90;2.85;;;19.00;72.50;;;;;;5031828;28;20033;-63
2023/07/03 10:10:51;;;;;;;6.05;1.75;;;19.60;72.90;;;;;;5040794;28;20048;-63
2023/07/03 10:13:24;;;;;;;5.07;2.15;;;20.80;68.70;;;;;;5034467;28;20118;-64
2023/07/03 10:15:51;;;;;;;5.88;1.48;;;21.50;59.80;;;;;;5025530;28;20453;-63
2023/07/03 10:18:35;;;;;;;2.92;1.30;;;23.00;62.70;;;;;;5035947;28;20048;-64
2023/07/03 10:21:03;;;;;;;5.80;1.40;;;24.10;63.90;;;;;;5035560;28;20033;-64
2023/07/03 10:23:36;;;;;;;2.85;1.23;;;24.00;59.30;;;;;;5045610;28;20102;-64
2023/07/03 10:26:08;;;;;;;3.83;1.35;;;23.20;58.70;;;;;;5037194;28;20111;-64
2023/07/03 10:28:41;;;;;;;4.50;1.20;;;23.20;60.30;;;;;;5036185;28;20426;-64
2023/07/03 10:31:14;;;;;;;4.25;1.20;;;24.30;59.20;;;;;;5034681;28;20065;-64
2023/07/03 10:33:45;;;;;;;3.72;1.40;;;25.40;55.60;;;;;;5041290;28;20540;-64
2023/07/03 10:36:21;;;;;;;3.70;0.98;;;25.50;51.50;;;;;;5028974;28;20045;-64
2023/07/03 10:39:00;;;;;;;3.53;1.02;;;25.30;52.20;;;;;;5035522;28;20090;-64
2023/07/03 10:41:30;;;;;;;4.20;0.82;;;23.80;45.60;;;;;;5027032;28;20103;-64
2023/07/03 10:44:00;;;;;;;2.70;0.75;;;23.10;49.50;;;;;;5042995;28;20139;-64
2023/07/03 10:46:43;;;;;;;2.42;0.85;;;21.80;49.50;;;;;;5034381;28;20044;-65
2023/07/03 10:49:17;;;;;;;2.28;0.90;;;21.20;49.50;;;;;;5044726;28;20044;-64
2023/07/03 10:51:52;;;;;;;2.13;0.88;;;20.90;48.60;;;;;;5027257;28;20076;-66
2023/07/03 10:54:30;;;;;;;3.78;1.00;;;20.80;45.80;;;;;;5033872;28;20035;-64
2023/07/03 10:57:01;;;;;;;3.03;0.68;;;22.20;48.40;;;;;;5031572;28;20040;-63
2023/07/03 10:59:33;;;;;;;2.75;0.90;;;23.10;46.70;;;;;;5028387;28;20052;-64
2023/07/03 11:02:23;;;;;;;3.88;1.00;;;22.70;46.30;;;;;;5036998;28;20056;-65
2023/07/03 11:05:08;;;;;;;2.22;0.90;;;22.20;46.00;;;;;;5032469;28;20057;-63
2023/07/03 11:07:54;;;;;;;1.95;0.85;;;22.20;43.80;;;;;;5033067;28;20053;-66
2023/07/03 11:10:35;;;;;;;4.22;0.65;;;22.10;41.90;;;;;;5030247;28;20570;-64
2023/07/03 11:13:18;;;;;;;2.33;0.82;;;22.30;45.80;;;;;;5028045;28;20069;-65
2023/07/03 11:16:02;;;;;;;3.35;0.80;;;22.40;44.30;;;;;;5038672;28;20255;-63
2023/07/03 11:18:38;;;;;;;3.72;0.80;;;22.60;43.80;;;;;;5030892;28;20140;-64
2023/07/03 11:21:20;;;;;;;2.47;0.68;;;22.50;43.00;;;;;;5036354;28;20071;-64
2023/07/03 11:24:19;;;;;;;2.33;0.73;;;22.20;39.60;;;;;;5038914;28;20045;-64
2023/07/03 11:27:07;;;;;;;2.25;0.80;;;22.20;40.30;;;;;;5054538;28;20149;-64
2023/07/03 11:29:34;;;;;;;2.95;0.70;;;21.80;40.90;;;;;;5032067;28;20163;-64
2023/07/03 11:32:02;;;;;;;3.25;0.77;;;21.30;42.00;;;;;;5036903;28;20099;-65
2023/07/03 11:34:28;;;;;;;1.45;0.50;;;20.80;42.50;;;;;;5047702;28;20051;-69
2023/07/03 11:36:55;;;;;;;3.83;0.77;;;20.40;42.30;;;;;;5037159;28;20041;-64
2023/07/03 11:39:29;;;;;;;4.63;0.93;;;20.30;43.80;;;;;;5038315;28;20065;-64
2023/07/03 11:42:10;;;;;;;4.25;0.80;;;20.20;44.60;;;;;;5042353;28;20791;-63
2023/07/03 11:44:48;;;;;;;6.97;1.13;;;20.20;44.10;;;;;;5035458;28;20045;-64
2023/07/03 11:47:24;;;;;;;2.85;0.90;;;20.30;45.50;;;;;;5038122;28;20036;-65
2023/07/03 11:49:57;;;;;;;3.47;0.90;;;20.00;44.70;;;;;;5042813;28;20071;-64
2023/07/03 11:52:29;;;;;;;3.55;0.77;;;20.10;45.40;;;;;;5038311;28;20542;-64
2023/07/03 11:55:05;;;;;;;3.05;0.73;;;20.50;45.60;;;;;;5031187;28;20501;-64
2023/07/03 11:57:40;;;;;;;3.42;0.85;;;20.80;45.50;;;;;;5035741;28;20045;-64
2023/07/03 12:00:27;;;;;;;2.80;0.77;;;21.00;45.10;;;;;;5041352;28;20052;-65
2023/07/03 12:03:00;;;;;;;2.10;0.80;;;21.40;44.70;;;;;;5037816;28;20037;-63
2023/07/03 12:05:47;;;;;;;1.30;0.45;;;21.60;44.60;;;;;;5043843;28;20053;-64
2023/07/03 12:08:19;;;;;;;1.55;0.70;;;22.00;42.40;;;;;;5043206;28;20058;-65
2023/07/03 12:10:52;;;;;;;4.97;0.95;;;22.20;40.60;;;;;;5027881;28;20124;-64
2023/07/03 12:13:33;;;;;;;4.47;0.85;;;22.50;40.50;;;;;;5030308;28;20045;-65
2023/07/03 12:16:04;;;;;;;5.05;0.68;;;22.20;37.90;;;;;;5026916;28;20147;-64
2023/07/03 12:18:32;;;;;;;6.47;0.63;;;21.90;39.70;;;;;;5036535;28;20038;-65
2023/07/03 12:21:00;;;;;;;4.40;0.82;;;21.50;41.40;;;;;;5037610;28;20481;-64
2023/07/03 12:23:35;;;;;;;6.82;1.20;;;21.30;41.40;;;;;;5026803;28;20607;-64
2023/07/03 12:26:11;;;;;;;3.38;0.90;;;21.10;42.20;;;;;;5039553;28;20033;-63
2023/07/03 12:28:37;;;;;;;2.42;0.85;;;21.00;42.40;;;;;;5039396;28;20040;-64
2023/07/03 12:31:18;;;;;;;5.38;0.98;;;21.00;44.00;;;;;;5032622;28;20067;-64
2023/07/03 12:33:54;;;;;;;3.08;1.13;;;20.80;44.80;;;;;;5043504;28;20068;-64
2023/07/03 12:36:26;;;;;;;4.60;0.98;;;20.60;46.20;;;;;;5035105;28;20430;-64
2023/07/03 12:38:52;;;;;;;3.70;1.00;;;20.30;46.10;;;;;;5043544;28;20040;-64
2023/07/03 12:41:32;;;;;;;5.35;1.02;;;20.20;46.60;;;;;;5043527;28;20048;-63
2023/07/03 12:44:01;;;;;;;3.20;0.90;;;20.20;46.90;;;;;;5046684;28;20037;-64
2023/07/03 12:46:37;;;;;;;6.88;0.98;;;20.00;46.20;;;;;;5041557;28;20064;-64
2023/07/03 12:49:16;;;;;;;4.78;0.98;;;20.10;45.60;;;;;;5036852;28;20085;-64
2023/07/03 12:51:50;;;;;;;4.10;0.70;;;19.90;43.90;;;;;;5037843;28;20113;-63
2023/07/03 12:54:16;;;;;;;3.35;0.90;;;19.70;45.30;;;;;;5047061;28;20132;-64